createdAt,value
2019-03-31T00:01:54.070Z,60.50
2019-03-31T00:04:25.271Z,61.00
2019-03-31T00:06:56.619Z,62.40
2019-03-31T00:09:27.872Z,61.50
2019-03-31T00:11:59.199Z,61.20
2019-03-31T00:14:30.556Z,62.00
2019-03-31T00:17:01.803Z,61.70
2019-03-31T00:19:36.119Z,62.10
2019-03-31T00:22:07.365Z,61.70
2019-03-31T00:24:38.701Z,62.00
2019-03-31T00:27:10.034Z,63.00
2019-03-31T00:29:41.344Z,62.00
2019-03-31T00:32:12.566Z,61.20
2019-03-31T00:34:43.867Z,60.00
2019-03-31T00:37:15.087Z,59.10
2019-03-31T00:39:46.290Z,59.10
2019-03-31T00:42:17.587Z,59.80
2019-03-31T00:44:48.912Z,61.80
2019-03-31T00:47:20.209Z,62.20
2019-03-31T00:49:51.436Z,61.40
2019-03-31T00:52:22.745Z,61.70
2019-03-31T00:54:54.084Z,63.00
2019-03-31T00:57:25.395Z,63.70
2019-03-31T00:59:56.674Z,64.70
2019-03-31T01:02:30.401Z,65.60
2019-03-31T01:05:01.664Z,66.20
2019-03-31T01:07:33.051Z,66.50
2019-03-31T01:10:05.170Z,67.50
2019-03-31T01:12:36.667Z,67.70
2019-03-31T01:15:14.274Z,67.60
2019-03-31T01:17:45.470Z,67.80
2019-03-31T01:20:16.760Z,66.80
2019-03-31T01:22:48.062Z,66.20
2019-03-31T01:25:20.058Z,66.40
2019-03-31T01:27:51.275Z,65.50
2019-03-31T01:30:23.040Z,65.10
2019-03-31T01:32:54.482Z,65.60
2019-03-31T01:35:26.027Z,65.80
2019-03-31T01:37:57.550Z,66.50
2019-03-31T01:40:28.766Z,66.60
2019-03-31T01:42:59.983Z,67.70
2019-03-31T01:45:31.291Z,66.80
2019-03-31T01:48:02.516Z,66.60
2019-03-31T01:50:33.772Z,66.10
2019-03-31T01:53:05.008Z,65.30
2019-03-31T01:55:36.346Z,66.30
2019-03-31T01:58:07.671Z,66.50
2019-03-31T02:00:42.068Z,67.50
2019-03-31T02:03:13.394Z,67.90
2019-03-31T02:05:44.681Z,68.30
2019-03-31T02:08:15.957Z,68.90
2019-03-31T02:10:47.304Z,69.20
2019-03-31T02:13:18.634Z,68.90
2019-03-31T02:15:49.956Z,69.00
2019-03-31T02:18:21.244Z,69.30
2019-03-31T02:20:52.550Z,68.90
2019-03-31T02:23:23.785Z,69.20
2019-03-31T02:25:55.092Z,68.80
2019-03-31T02:28:26.399Z,68.90
2019-03-31T02:30:57.691Z,68.80
2019-03-31T02:33:28.958Z,69.00
2019-03-31T02:36:00.289Z,69.10
2019-03-31T02:38:31.532Z,67.80
2019-03-31T02:41:02.842Z,67.90
2019-03-31T02:43:34.118Z,66.70
2019-03-31T02:46:06.356Z,66.80
2019-03-31T02:48:37.652Z,67.30
2019-03-31T02:51:09.730Z,67.70
2019-03-31T02:53:40.913Z,67.60
2019-03-31T02:56:14.922Z,67.30
2019-03-31T02:58:46.718Z,68.50
2019-03-31T03:01:18.573Z,68.70
2019-03-31T03:03:51.593Z,68.10
2019-03-31T03:06:24.579Z,67.60
2019-03-31T03:08:57.154Z,67.80
2019-03-31T03:11:30.180Z,68.70
2019-03-31T03:14:03.429Z,69.10
2019-03-31T03:16:34.733Z,69.30
2019-03-31T03:19:06.040Z,69.90
2019-03-31T03:21:37.327Z,71.00
2019-03-31T03:24:08.623Z,69.40
2019-03-31T03:26:39.824Z,68.30
2019-03-31T03:29:11.046Z,68.60
2019-03-31T03:31:42.366Z,69.20
2019-03-31T03:34:13.540Z,70.00
2019-03-31T03:36:44.836Z,71.70
2019-03-31T03:39:16.191Z,73.00
2019-03-31T03:41:47.508Z,73.00
2019-03-31T03:44:18.785Z,73.80
2019-03-31T03:46:50.061Z,74.00
2019-03-31T03:49:21.402Z,75.00
2019-03-31T03:51:52.683Z,76.20
2019-03-31T03:54:24.012Z,76.50
2019-03-31T03:56:55.296Z,75.70
2019-03-31T03:59:26.654Z,75.90
2019-03-31T04:01:57.980Z,76.40
2019-03-31T04:04:29.256Z,77.50
2019-03-31T04:07:00.562Z,77.30
2019-03-31T04:09:31.810Z,78.20
2019-03-31T04:12:03.017Z,79.30
2019-03-31T04:14:34.323Z,76.90
2019-03-31T04:17:05.637Z,75.40
2019-03-31T04:19:36.977Z,74.30
2019-03-31T04:22:08.232Z,73.30
2019-03-31T04:24:39.562Z,72.30
2019-03-31T04:27:10.825Z,71.90
2019-03-31T04:29:42.130Z,71.30
2019-03-31T04:32:13.451Z,71.10
2019-03-31T04:34:44.774Z,70.50
2019-03-31T04:37:16.080Z,71.10
2019-03-31T04:39:47.287Z,70.50
2019-03-31T04:42:18.472Z,71.70
2019-03-31T04:44:49.741Z,73.00
2019-03-31T04:47:22.145Z,73.20
2019-03-31T04:49:53.371Z,73.00
2019-03-31T04:52:24.688Z,72.10
2019-03-31T04:54:55.975Z,71.10
2019-03-31T04:57:27.282Z,71.00
2019-03-31T04:59:59.138Z,70.80
2019-03-31T05:02:30.344Z,69.50
2019-03-31T05:05:01.640Z,68.70
2019-03-31T05:07:32.956Z,70.30
2019-03-31T05:10:04.644Z,70.90
2019-03-31T05:12:35.850Z,73.00
2019-03-31T05:15:07.237Z,73.30
2019-03-31T05:17:38.542Z,73.40
2019-03-31T05:20:10.176Z,73.80
2019-03-31T05:22:41.468Z,73.50
2019-03-31T05:25:12.742Z,74.30
2019-03-31T05:27:43.988Z,74.80
2019-03-31T05:30:15.235Z,74.60
2019-03-31T05:32:46.514Z,75.00
2019-03-31T05:35:17.799Z,75.90
2019-03-31T05:37:51.234Z,76.50
2019-03-31T05:40:21.943Z,77.50
2019-03-31T05:42:53.307Z,76.70
2019-03-31T05:45:24.748Z,77.50
2019-03-31T05:47:55.989Z,76.30
2019-03-31T05:50:27.277Z,75.80
2019-03-31T05:52:58.522Z,75.80
2019-03-31T05:55:29.890Z,76.30
2019-03-31T05:58:01.189Z,76.20
2019-03-31T06:00:38.724Z,76.80
2019-03-31T06:03:10.000Z,75.40
2019-03-31T06:05:41.326Z,72.00
2019-03-31T06:08:12.602Z,69.70
2019-03-31T06:10:43.899Z,66.10
2019-03-31T06:13:15.195Z,62.60
2019-03-31T06:15:46.542Z,61.10
2019-03-31T06:18:17.783Z,58.50
2019-03-31T06:20:49.105Z,55.70
2019-03-31T06:23:20.402Z,54.20
2019-03-31T06:25:51.648Z,53.70
2019-03-31T06:28:22.875Z,53.00
2019-03-31T06:30:54.232Z,53.50
2019-03-31T06:33:25.517Z,50.10
2019-03-31T06:35:56.854Z,47.50
2019-03-31T06:38:28.090Z,49.00
2019-03-31T06:40:59.348Z,49.30
2019-03-31T06:43:30.697Z,49.30
2019-03-31T06:46:01.950Z,49.30
2019-03-31T06:48:33.266Z,48.50
2019-03-31T06:51:04.509Z,46.80
2019-03-31T06:53:35.769Z,44.20
2019-03-31T06:56:07.115Z,41.70
2019-03-31T06:58:38.475Z,40.40
2019-03-31T07:01:09.769Z,41.70
2019-03-31T07:03:41.155Z,41.60
2019-03-31T07:06:12.391Z,39.10
2019-03-31T07:08:43.747Z,38.40
2019-03-31T07:11:15.038Z,37.90
2019-03-31T07:13:46.279Z,38.10
2019-03-31T07:16:17.586Z,38.40
2019-03-31T07:18:48.872Z,38.70
2019-03-31T07:21:20.161Z,39.90
2019-03-31T07:23:51.465Z,40.20
2019-03-31T07:26:22.752Z,41.50
2019-03-31T07:28:54.070Z,40.80
2019-03-31T07:31:25.465Z,39.90
2019-03-31T07:33:56.845Z,39.50
2019-03-31T07:36:28.174Z,39.00
2019-03-31T07:38:59.535Z,38.60
2019-03-31T07:41:31.065Z,38.30
2019-03-31T07:44:02.520Z,37.70
2019-03-31T07:46:33.863Z,38.70
2019-03-31T07:49:06.050Z,39.70
2019-03-31T07:51:37.644Z,39.80
2019-03-31T07:54:09.084Z,41.60
2019-03-31T07:56:40.496Z,42.00
2019-03-31T07:59:11.925Z,43.90
2019-03-31T08:01:44.554Z,43.60
2019-03-31T08:04:16.142Z,43.20
2019-03-31T08:06:47.721Z,41.10
2019-03-31T08:09:19.064Z,39.80
2019-03-31T08:11:50.312Z,39.50
2019-03-31T08:14:21.646Z,40.90
2019-03-31T08:16:52.982Z,40.70
2019-03-31T08:19:24.313Z,39.70
2019-03-31T08:21:55.604Z,38.40
2019-03-31T08:24:26.962Z,38.70
2019-03-31T08:26:58.157Z,38.00
2019-03-31T08:29:31.935Z,38.20
2019-03-31T08:32:03.225Z,38.50
2019-03-31T08:34:34.591Z,39.80
2019-03-31T08:37:05.864Z,39.50
2019-03-31T08:39:37.233Z,39.70
2019-03-31T08:42:08.638Z,38.60
2019-03-31T08:44:39.953Z,39.10
2019-03-31T08:47:11.239Z,40.00
2019-03-31T08:49:42.576Z,40.00
2019-03-31T08:52:13.963Z,38.50
2019-03-31T08:54:45.301Z,40.80
2019-03-31T08:57:16.635Z,41.90
2019-03-31T08:59:47.993Z,42.30
2019-03-31T09:02:24.460Z,41.90
2019-03-31T09:04:55.965Z,41.30
2019-03-31T09:07:27.156Z,41.40
2019-03-31T09:09:58.519Z,42.00
2019-03-31T09:12:29.856Z,38.40
2019-03-31T09:15:01.213Z,38.50
2019-03-31T09:17:32.508Z,38.40
2019-03-31T09:20:03.815Z,36.50
2019-03-31T09:22:35.167Z,35.80
2019-03-31T09:25:06.859Z,35.20
2019-03-31T09:27:38.155Z,35.60
2019-03-31T09:30:12.701Z,34.60
2019-03-31T09:32:44.002Z,32.70
2019-03-31T09:35:15.539Z,33.90
2019-03-31T09:37:46.852Z,34.60
2019-03-31T09:40:18.547Z,35.20
2019-03-31T09:42:49.714Z,37.00
2019-03-31T09:45:21.206Z,38.20
2019-03-31T09:47:52.367Z,38.80
2019-03-31T09:50:23.805Z,38.70
2019-03-31T09:52:55.205Z,37.90
2019-03-31T09:55:26.466Z,37.60
2019-03-31T09:57:57.712Z,39.40
2019-03-31T10:00:44.594Z,36.50
2019-03-31T10:03:16.223Z,35.80
2019-03-31T10:05:48.351Z,35.90
2019-03-31T10:08:21.961Z,37.60
2019-03-31T10:10:52.531Z,35.60
2019-03-31T10:13:23.838Z,35.50
2019-03-31T10:15:55.052Z,35.40
2019-03-31T10:18:26.261Z,35.70
2019-03-31T10:20:57.496Z,35.70
2019-03-31T10:23:28.716Z,37.00
2019-03-31T10:26:00.009Z,36.10
2019-03-31T10:28:31.275Z,36.80
2019-03-31T10:31:02.604Z,35.40
2019-03-31T10:33:33.782Z,37.30
2019-03-31T10:36:05.174Z,37.30
2019-03-31T10:38:36.441Z,36.40
2019-03-31T10:41:07.727Z,36.20
2019-03-31T10:43:39.043Z,36.00
2019-03-31T10:46:10.270Z,37.60
2019-03-31T10:48:41.586Z,39.00
2019-03-31T10:51:12.952Z,39.70
2019-03-31T10:53:44.181Z,39.60
2019-03-31T10:56:15.569Z,39.80
2019-03-31T10:58:46.873Z,41.90
2019-03-31T11:01:18.078Z,39.60
2019-03-31T11:03:49.286Z,45.00
2019-03-31T11:06:20.521Z,47.50
2019-03-31T11:08:51.757Z,45.40
2019-03-31T11:11:23.074Z,44.30
2019-03-31T11:13:54.331Z,47.30
2019-03-31T11:16:25.687Z,46.40
2019-03-31T11:18:56.984Z,45.80
2019-03-31T11:21:36.654Z,45.00
2019-03-31T11:24:07.848Z,43.80
2019-03-31T11:26:39.200Z,44.30
2019-03-31T11:29:10.401Z,45.50
2019-03-31T11:31:41.778Z,42.10
2019-03-31T11:34:13.084Z,42.40
2019-03-31T11:36:44.381Z,43.00
2019-03-31T11:39:16.496Z,43.80
2019-03-31T11:41:49.244Z,43.80
2019-03-31T11:44:20.463Z,44.50
2019-03-31T11:46:51.737Z,42.00
2019-03-31T11:49:23.003Z,39.90
2019-03-31T11:51:54.270Z,42.00
2019-03-31T11:54:25.626Z,39.70
2019-03-31T11:56:56.885Z,39.40
2019-03-31T11:59:28.158Z,40.80
2019-03-31T12:01:59.506Z,38.70
2019-03-31T12:04:30.692Z,38.80
2019-03-31T12:07:01.939Z,36.00
2019-03-31T12:09:33.224Z,37.20
2019-03-31T12:12:04.624Z,38.40
2019-03-31T12:14:35.863Z,38.20
2019-03-31T12:17:07.075Z,35.20
2019-03-31T12:19:38.416Z,33.80
2019-03-31T12:22:09.777Z,33.30
2019-03-31T12:24:41.073Z,35.50
2019-03-31T12:27:12.320Z,36.70
2019-03-31T12:29:43.697Z,34.50
2019-03-31T12:32:14.995Z,36.40
2019-03-31T12:34:46.219Z,34.40
2019-03-31T12:37:17.487Z,33.80
2019-03-31T12:39:48.803Z,34.50
2019-03-31T12:42:20.139Z,36.70
2019-03-31T12:44:51.416Z,36.00
2019-03-31T12:47:22.724Z,34.90
2019-03-31T12:49:53.989Z,33.90
2019-03-31T12:52:25.146Z,31.30
2019-03-31T12:54:56.441Z,28.40
2019-03-31T12:57:27.658Z,32.30
2019-03-31T12:59:58.884Z,29.70
2019-03-31T13:02:30.281Z,28.10
2019-03-31T13:05:01.582Z,24.70
2019-03-31T13:07:32.844Z,24.90
2019-03-31T13:10:04.121Z,26.30
2019-03-31T13:12:35.398Z,28.80
2019-03-31T13:15:07.325Z,30.80
2019-03-31T13:17:38.623Z,33.70
2019-03-31T13:20:10.258Z,34.20
2019-03-31T13:22:41.533Z,35.10
2019-03-31T13:25:13.910Z,36.40
2019-03-31T13:27:45.166Z,37.40
2019-03-31T13:30:16.603Z,40.60
2019-03-31T13:32:47.869Z,39.70
2019-03-31T13:35:20.087Z,41.30
2019-03-31T13:37:51.423Z,40.60
2019-03-31T13:40:22.736Z,40.70
2019-03-31T13:42:53.985Z,39.50
2019-03-31T13:45:25.291Z,39.80
2019-03-31T13:47:58.694Z,39.70
2019-03-31T13:50:29.474Z,39.90
2019-03-31T13:53:00.689Z,40.40
2019-03-31T13:55:32.079Z,40.60
2019-03-31T13:58:03.775Z,42.20
2019-03-31T14:00:41.023Z,40.60
2019-03-31T14:03:12.368Z,42.30
2019-03-31T14:05:43.644Z,41.90
2019-03-31T14:08:25.639Z,40.60
2019-03-31T14:10:47.847Z,39.10
2019-03-31T14:13:19.079Z,38.20
2019-03-31T14:15:50.411Z,38.40
2019-03-31T14:18:21.707Z,40.20
2019-03-31T14:20:53.034Z,40.20
2019-03-31T14:23:24.246Z,41.60
2019-03-31T14:25:55.545Z,43.90
2019-03-31T14:28:26.764Z,43.90
2019-03-31T14:30:58.109Z,44.10
2019-03-31T14:33:29.305Z,44.90
2019-03-31T14:36:00.642Z,45.40
2019-03-31T14:38:40.048Z,48.60
2019-03-31T14:41:04.929Z,51.10
2019-03-31T14:43:36.233Z,53.50
2019-03-31T14:46:07.568Z,54.40
2019-03-31T14:48:38.844Z,55.90
2019-03-31T14:51:10.201Z,55.90
2019-03-31T14:53:41.467Z,55.60
2019-03-31T14:56:12.843Z,56.50
2019-03-31T14:58:44.079Z,57.40
2019-03-31T15:01:15.407Z,56.20
2019-03-31T15:03:46.732Z,54.40
2019-03-31T15:06:18.048Z,53.60
2019-03-31T15:08:54.445Z,52.80
2019-03-31T15:11:22.434Z,51.80
2019-03-31T15:13:53.559Z,52.60
2019-03-31T15:16:30.367Z,53.40
2019-03-31T15:19:01.643Z,54.50
2019-03-31T15:21:32.887Z,55.60
2019-03-31T15:24:04.995Z,56.40
2019-03-31T15:26:36.331Z,56.70
2019-03-31T15:29:07.598Z,56.40
2019-03-31T15:31:38.882Z,57.50
2019-03-31T15:34:10.151Z,58.30
2019-03-31T15:36:41.497Z,58.50
2019-03-31T15:39:13.643Z,60.30
2019-03-31T15:41:44.959Z,59.90
2019-03-31T15:44:16.215Z,59.80
2019-03-31T15:46:47.522Z,60.50
2019-03-31T15:49:18.809Z,60.10
2019-03-31T15:51:50.163Z,59.70
2019-03-31T15:54:21.362Z,60.40
2019-03-31T15:56:52.767Z,60.60
2019-03-31T15:59:24.009Z,60.50
2019-03-31T16:01:55.250Z,61.10
2019-03-31T16:04:26.518Z,61.00
2019-03-31T16:06:57.872Z,61.10
2019-03-31T16:09:28.618Z,62.10
2019-03-31T16:11:59.375Z,63.20
2019-03-31T16:14:30.660Z,62.70
2019-03-31T16:17:01.486Z,62.70
2019-03-31T16:19:32.234Z,63.40
2019-03-31T16:22:02.932Z,63.20
2019-03-31T16:24:39.557Z,63.30
2019-03-31T16:27:10.335Z,64.00
2019-03-31T16:29:40.980Z,63.90
2019-03-31T16:32:11.727Z,65.00
2019-03-31T16:34:42.432Z,64.70
2019-03-31T16:37:13.124Z,65.10
2019-03-31T16:39:44.262Z,65.00
2019-03-31T16:42:15.293Z,65.50
2019-03-31T16:44:57.540Z,65.40
2019-03-31T16:47:18.445Z,65.60
2019-03-31T16:49:49.197Z,65.80
2019-03-31T16:52:19.947Z,66.00
2019-03-31T16:54:50.684Z,66.30
2019-03-31T16:57:21.539Z,66.10
2019-03-31T16:59:52.304Z,66.10
2019-03-31T17:02:23.031Z,66.20
2019-03-31T17:04:53.818Z,66.60
2019-03-31T17:07:24.584Z,66.60
2019-03-31T17:09:55.320Z,66.60
2019-03-31T17:12:26.071Z,66.50
2019-03-31T17:14:56.776Z,66.80
2019-03-31T17:17:27.489Z,67.20
2019-03-31T17:19:58.255Z,67.40
2019-03-31T17:22:28.983Z,67.20
2019-03-31T17:24:59.759Z,67.60
2019-03-31T17:27:30.464Z,67.70
2019-03-31T17:30:01.224Z,67.40
2019-03-31T17:32:32.038Z,67.60
2019-03-31T17:35:02.840Z,68.10
2019-03-31T17:37:33.578Z,68.00
2019-03-31T17:40:06.679Z,68.70
2019-03-31T17:42:37.530Z,69.20
2019-03-31T17:45:08.660Z,69.70
2019-03-31T17:47:39.934Z,69.90
2019-03-31T17:50:10.780Z,70.60
2019-03-31T17:52:41.527Z,71.80
2019-03-31T17:55:12.382Z,71.50
2019-03-31T17:57:43.133Z,72.30
2019-03-31T18:00:14.305Z,73.20
2019-03-31T18:02:45.050Z,73.50
2019-03-31T18:05:15.844Z,74.20
2019-03-31T18:07:46.538Z,74.30
2019-03-31T18:10:21.139Z,74.80
2019-03-31T18:12:49.692Z,75.00
2019-03-31T18:15:20.422Z,75.00
2019-03-31T18:17:51.129Z,75.50
2019-03-31T18:20:21.933Z,75.20
2019-03-31T18:22:52.701Z,76.10
2019-03-31T18:25:23.558Z,77.00
2019-03-31T18:27:54.254Z,77.60
2019-03-31T18:30:25.010Z,78.60
2019-03-31T18:32:55.726Z,79.20
2019-03-31T18:35:26.491Z,80.00
2019-03-31T18:37:57.179Z,80.50
2019-03-31T18:40:34.845Z,81.40
2019-03-31T18:43:00.360Z,80.90
2019-03-31T18:45:31.077Z,81.20
2019-03-31T18:48:01.817Z,81.20
2019-03-31T18:50:32.510Z,81.50
2019-03-31T18:53:04.016Z,80.50
2019-03-31T18:55:43.815Z,81.00
2019-03-31T18:58:39.327Z,80.90
2019-03-31T19:01:31.048Z,80.60
2019-03-31T19:04:26.773Z,81.20
2019-03-31T19:07:15.339Z,81.90
2019-03-31T19:10:04.962Z,81.70
2019-03-31T19:13:05.147Z,82.00
2019-03-31T19:15:53.916Z,82.70
2019-03-31T19:18:43.607Z,82.50
2019-03-31T19:21:32.237Z,82.80
2019-03-31T19:24:24.748Z,82.70
2019-03-31T19:27:17.510Z,82.60
2019-03-31T19:30:15.441Z,83.10
2019-03-31T19:33:11.015Z,83.00
2019-03-31T19:35:57.955Z,83.30
2019-03-31T19:38:46.585Z,83.40
2019-03-31T19:41:27.254Z,83.70
2019-03-31T19:44:16.924Z,83.60
2019-03-31T19:47:10.049Z,83.40
2019-03-31T19:49:57.927Z,83.50
2019-03-31T19:52:46.628Z,83.80
2019-03-31T19:55:36.969Z,83.40
2019-03-31T19:58:18.577Z,83.70
2019-03-31T20:01:08.238Z,84.20
2019-03-31T20:03:56.589Z,84.20
2019-03-31T20:06:49.149Z,84.30
2019-03-31T20:09:31.768Z,84.00
2019-03-31T20:12:20.309Z,84.40
2019-03-31T20:15:05.219Z,84.40
2019-03-31T20:17:55.090Z,84.40
2019-03-31T20:20:41.159Z,84.40
2019-03-31T20:23:31.020Z,85.00
2019-03-31T20:26:35.775Z,85.00
2019-03-31T20:29:21.594Z,85.00
2019-03-31T20:32:10.335Z,85.50
2019-03-31T20:34:46.603Z,85.70
2019-03-31T20:37:36.223Z,86.30
2019-03-31T20:40:25.954Z,86.50
2019-03-31T20:43:31.019Z,86.70
2019-03-31T20:46:04.282Z,86.80
2019-03-31T20:48:34.281Z,87.00
2019-03-31T20:51:06.007Z,87.20
2019-03-31T20:53:37.751Z,86.80
2019-03-31T20:56:08.450Z,86.90
2019-03-31T20:58:39.211Z,86.70
2019-03-31T21:01:10.348Z,87.70
2019-03-31T21:03:41.099Z,87.20
2019-03-31T21:06:11.885Z,87.00
2019-03-31T21:08:42.541Z,86.80
2019-03-31T21:11:14.591Z,86.90
2019-03-31T21:13:45.309Z,87.00
2019-03-31T21:16:16.090Z,87.20
2019-03-31T21:18:46.832Z,87.40
2019-03-31T21:21:17.586Z,87.80
2019-03-31T21:23:48.271Z,87.90
2019-03-31T21:26:18.965Z,87.80
2019-03-31T21:28:49.712Z,87.90
2019-03-31T21:31:20.428Z,87.40
2019-03-31T21:33:51.144Z,87.30
2019-03-31T21:36:21.911Z,87.30
2019-03-31T21:38:52.617Z,87.50
2019-03-31T21:41:23.353Z,87.50
2019-03-31T21:43:54.092Z,87.60
2019-03-31T21:46:24.846Z,87.30
2019-03-31T21:49:14.640Z,87.50
2019-03-31T21:51:45.375Z,87.30
2019-03-31T21:54:16.059Z,87.40
2019-03-31T21:56:46.827Z,87.50
2019-03-31T21:59:17.519Z,87.40
2019-03-31T22:01:48.232Z,87.30
2019-03-31T22:04:18.904Z,87.30
2019-03-31T22:06:49.662Z,87.50
2019-03-31T22:09:20.333Z,87.60
2019-03-31T22:11:51.013Z,87.40
2019-03-31T22:14:21.672Z,87.60
2019-03-31T22:16:52.398Z,87.20
2019-03-31T22:19:23.083Z,87.30
2019-03-31T22:21:53.748Z,87.40
2019-03-31T22:24:24.356Z,87.60
2019-03-31T22:26:55.081Z,87.50
2019-03-31T22:29:25.792Z,87.70
2019-03-31T22:31:56.484Z,87.80
2019-03-31T22:34:27.160Z,87.60
2019-03-31T22:36:57.796Z,87.80
2019-03-31T22:39:28.403Z,87.80
2019-03-31T22:41:59.073Z,88.40
2019-03-31T22:44:30.659Z,88.30
2019-03-31T22:47:01.392Z,88.20
2019-03-31T22:49:32.079Z,88.30
2019-03-31T22:52:02.788Z,88.40
2019-03-31T22:54:33.462Z,88.20
2019-03-31T22:57:04.107Z,88.10
2019-03-31T22:59:34.714Z,88.10
2019-03-31T23:02:05.442Z,88.40
2019-03-31T23:04:36.140Z,88.20
2019-03-31T23:07:06.833Z,88.30
2019-03-31T23:09:37.711Z,88.40
2019-03-31T23:12:08.446Z,88.60
2019-03-31T23:14:39.022Z,88.30
2019-03-31T23:17:09.673Z,88.80
2019-03-31T23:19:40.345Z,89.10
2019-03-31T23:22:10.971Z,89.10
2019-03-31T23:24:41.619Z,89.00
2019-03-31T23:27:12.327Z,88.80
2019-03-31T23:29:43.020Z,89.20
2019-03-31T23:32:13.616Z,89.50
2019-03-31T23:34:44.353Z,89.80
2019-03-31T23:37:14.969Z,89.80
2019-03-31T23:39:45.656Z,90.20
2019-03-31T23:42:16.351Z,90.20
2019-03-31T23:44:47.068Z,90.30
2019-03-31T23:47:17.734Z,90.50
2019-03-31T23:49:48.440Z,90.00
2019-03-31T23:52:19.168Z,89.80
2019-03-31T23:54:49.934Z,89.90
2019-03-31T23:57:22.231Z,89.90
2019-03-31T23:59:53.014Z,89.80
